Time;durP1;ratioP1;P1;durP2;ratioP2;P2;SDS_P1;SDS_P2;PMS_P1;PMS_P2;Temp;Humidity;BMP_temperature;BMP_pressure;BME280_temperature;BME280_humidity;BME280_pressure;Samples;Min_cycle;Max_cycle;Signal;HPM_P1;HPM_P2
2022/10/04 00:00:37;;;;;;;9.13;1.30;;;;;;;13.93;63.09;102114.47;4910800;28;96810;-51
2022/10/04 00:03:26;;;;;;;5.37;1.00;;;;;;;13.87;63.20;102106.06;4910565;28;97570;-51
2022/10/04 00:05:56;;;;;;;1.83;0.80;;;;;;;13.84;63.10;102100.72;4911270;28;101864;-51
2022/10/04 00:08:41;;;;;;;4.23;0.80;;;;;;;13.85;63.12;102099.47;4909606;28;97050;-51
2022/10/04 00:11:17;;;;;;;3.23;0.90;;;;;;;13.81;63.10;102101.69;4911329;28;97178;-50
2022/10/04 00:13:49;;;;;;;4.20;1.00;;;;;;;13.79;63.08;102104.16;4911849;28;99221;-51
2022/10/04 00:16:30;;;;;;;5.60;1.30;;;;;;;13.79;63.16;102098.63;4904983;28;100740;-50
2022/10/04 00:19:13;;;;;;;2.23;0.90;;;;;;;13.77;63.11;102098.34;4903521;28;102942;-50
2022/10/04 00:21:57;;;;;;;4.83;0.73;;;;;;;13.75;63.27;102100.84;4910222;28;97218;-50
2022/10/04 00:24:34;;;;;;;2.67;0.80;;;;;;;13.75;63.12;102093.31;4910710;28;97442;-50
2022/10/04 00:27:23;;;;;;;5.37;0.90;;;;;;;13.75;63.23;102098.06;4907793;28;101846;-53
2022/10/04 00:30:09;;;;;;;1.87;1.00;;;;;;;13.72;63.07;102093.50;4910035;28;97272;-50
2022/10/04 00:32:38;;;;;;;1.13;0.57;;;;;;;13.73;63.02;102092.25;4908975;28;97302;-52
2022/10/04 00:35:25;;;;;;;2.13;1.03;;;;;;;13.71;63.34;102097.50;4910509;28;97737;-50
2022/10/04 00:38:26;;;;;;;15.13;1.00;;;;;;;13.69;63.70;102089.69;4905260;28;103745;-50
2022/10/04 00:41:04;;;;;;;6.00;1.00;;;;;;;13.72;63.25;102096.25;4905162;28;101023;-49
2022/10/04 00:43:47;;;;;;;0.90;0.70;;;;;;;13.73;63.54;102101.31;4908293;28;97515;-49
2022/10/04 00:46:19;;;;;;;4.70;0.90;;;;;;;13.74;63.33;102099.34;4908263;28;97430;-49
2022/10/04 00:48:52;;;;;;;8.80;1.30;;;;;;;13.75;63.27;102089.78;4905767;28;101490;-50
2022/10/04 00:51:48;;;;;;;2.73;0.97;;;;;;;13.72;63.45;102074.91;4908547;28;100202;-50
2022/10/04 00:54:13;;;;;;;9.27;1.60;;;;;;;13.69;63.38;102077.88;4910488;28;97098;-50
2022/10/04 00:56:48;;;;;;;3.10;0.77;;;;;;;13.66;63.30;102067.75;4911676;28;97832;-49
2022/10/04 00:59:43;;;;;;;3.53;1.00;;;;;;;13.63;63.61;102057.66;4908554;28;98049;-50
2022/10/04 01:02:27;;;;;;;2.87;0.90;;;;;;;13.63;63.64;102049.38;4902941;28;100149;-50
2022/10/04 01:04:59;;;;;;;4.43;0.90;;;;;;;13.61;63.48;102058.13;4909442;28;96867;-50
2022/10/04 01:07:37;;;;;;;2.43;0.80;;;;;;;13.63;63.43;102057.66;4908607;28;99697;-50
2022/10/04 01:10:10;;;;;;;4.10;0.87;;;;;;;13.64;63.44;102056.41;4906446;28;100640;-50
2022/10/04 01:12:52;;;;;;;4.83;1.00;;;;;;;13.64;63.76;102051.66;4910192;28;101402;-50
2022/10/04 01:15:21;;;;;;;4.40;0.73;;;;;;;13.64;63.49;102045.34;4910414;28;97260;-50
2022/10/04 01:18:24;;;;;;;4.63;1.00;;;;;;;13.60;63.82;102053.06;4909909;28;98350;-50
2022/10/04 01:21:21;;;;;;;4.40;1.00;;;;;;;13.61;63.64;102057.38;4867026;28;100576;-50
2022/10/04 01:23:49;;;;;;;4.87;0.80;;;;;;;13.58;63.28;102052.81;4868839;28;100081;-50
2022/10/04 01:26:33;;;;;;;1.07;0.70;;;;;;;13.59;63.36;102051.53;4896264;28;101649;-50
2022/10/04 01:29:05;;;;;;;1.20;0.80;;;;;;;13.53;63.13;102052.25;4903489;28;97042;-51
2022/10/04 01:31:33;;;;;;;4.00;1.03;;;;;;;13.46;63.33;102052.63;4904566;28;97200;-51
2022/10/04 01:34:00;;;;;;;2.60;0.60;;;;;;;13.46;63.42;102049.84;4902292;28;97222;-50
2022/10/04 01:36:26;;;;;;;1.37;0.80;;;;;;;13.47;63.54;102056.91;4910488;28;97080;-50
2022/10/04 01:38:52;;;;;;;6.47;1.00;;;;;;;13.49;63.61;102054.44;4907411;28;98734;-50
2022/10/04 01:41:24;;;;;;;2.13;1.10;;;;;;;13.51;63.59;102063.00;4907762;28;97975;-51
2022/10/04 01:43:54;;;;;;;7.83;3.80;;;;;;;13.50;63.33;102050.41;4907178;28;97220;-49
2022/10/04 01:46:25;;;;;;;15.20;5.93;;;;;;;13.49;63.44;102045.38;4908848;28;96841;-49
2022/10/04 01:48:55;;;;;;;12.33;4.07;;;;;;;13.46;63.47;102035.25;4904434;28;98064;-50
2022/10/04 01:51:24;;;;;;;5.10;2.00;;;;;;;13.45;63.63;102040.03;4908182;28;97287;-50
2022/10/04 01:53:58;;;;;;;4.73;1.80;;;;;;;13.48;63.52;102041.06;4909425;28;98530;-49
2022/10/04 01:56:29;;;;;;;3.03;1.00;;;;;;;13.47;63.64;102034.03;4901070;28;97455;-50
2022/10/04 01:59:00;;;;;;;3.17;1.40;;;;;;;13.50;63.68;102030.28;4907288;28;96817;-53
2022/10/04 02:01:30;;;;;;;5.33;1.67;;;;;;;13.48;63.78;102019.72;4906732;28;96783;-49
2022/10/04 02:04:18;;;;;;;1.43;1.00;;;;;;;13.48;64.10;102024.47;4907648;28;97508;-51
2022/10/04 02:06:45;;;;;;;2.33;0.80;;;;;;;13.47;63.66;102023.75;4907713;28;96874;-51
2022/10/04 02:09:19;;;;;;;2.57;1.00;;;;;;;13.50;63.78;102030.28;4904675;28;97332;-50
2022/10/04 02:11:51;;;;;;;2.10;0.90;;;;;;;13.50;63.65;102022.78;4907575;28;97826;-49
2022/10/04 02:14:22;;;;;;;2.00;1.00;;;;;;;13.52;64.03;102025.03;4908224;28;96932;-50
2022/10/04 02:16:52;;;;;;;5.53;1.67;;;;;;;13.51;63.86;102018.78;4911816;28;96872;-49
2022/10/04 02:19:24;;;;;;;1.63;0.87;;;;;;;13.50;63.66;102017.25;4904776;28;97075;-51
2022/10/04 02:21:51;;;;;;;2.10;1.00;;;;;;;13.49;63.66;102015.72;4908621;28;97432;-49
2022/10/04 02:24:17;;;;;;;3.67;0.90;;;;;;;13.47;63.71;101998.88;4912106;28;96814;-50
2022/10/04 02:26:48;;;;;;;4.60;1.50;;;;;;;13.47;63.83;102007.16;4911507;28;97211;-50
2022/10/04 02:29:14;;;;;;;2.83;1.00;;;;;;;13.50;63.99;101997.13;4911778;28;97436;-50
2022/10/04 02:34:23;;;;;;;18.83;1.20;;;;;;;13.51;64.12;101990.34;4910975;28;101399;-51
2022/10/04 02:36:50;;;;;;;10.07;1.20;;;;;;;13.52;64.06;101992.63;4913067;28;96724;-51
2022/10/04 02:39:32;;;;;;;4.80;1.50;;;;;;;13.54;64.46;101990.16;4910161;28;97130;-49
2022/10/04 02:42:25;;;;;;;2.27;1.10;;;;;;;13.55;64.34;101982.63;4913198;28;103804;-49
2022/10/04 02:44:59;;;;;;;4.20;1.00;;;;;;;13.57;64.00;101982.91;4911851;28;97272;-50
2022/10/04 02:47:29;;;;;;;1.87;1.10;;;;;;;13.56;63.95;101975.09;4911056;28;96806;-49
2022/10/04 02:50:00;;;;;;;1.37;1.10;;;;;;;13.56;64.01;101999.97;4912576;28;97515;-51
2022/10/04 02:52:43;;;;;;;4.23;1.30;;;;;;;13.53;64.15;101974.81;4914357;28;97634;-49
2022/10/04 02:55:29;;;;;;;7.43;1.83;;;;;;;13.50;64.07;101978.53;4908368;28;100978;-54
2022/10/04 02:57:57;;;;;;;7.97;1.43;;;;;;;13.49;64.01;101976.25;4905762;28;97318;-50
2022/10/04 03:00:26;;;;;;;3.20;1.47;;;;;;;13.51;63.95;101971.78;4908411;28;96900;-49
2022/10/04 03:03:14;;;;;;;4.53;1.03;;;;;;;13.54;64.26;101968.03;4907695;28;97380;-50
2022/10/04 03:05:40;;;;;;;7.30;1.20;;;;;;;13.54;63.99;101976.31;4906729;28;97067;-50
2022/10/04 03:08:06;;;;;;;2.37;1.40;;;;;;;13.56;64.15;101969.56;4902716;28;97501;-50
2022/10/04 03:10:31;;;;;;;8.00;1.20;;;;;;;13.56;63.98;101970.34;4908752;28;97038;-51
2022/10/04 03:12:58;;;;;;;2.33;1.10;;;;;;;13.57;64.23;101966.31;4909700;28;97488;-49
2022/10/04 03:15:23;;;;;;;5.07;0.93;;;;;;;13.56;64.01;101958.50;4909361;28;97399;-49
2022/10/04 03:17:49;;;;;;;3.00;1.23;;;;;;;13.57;64.21;101971.84;4912439;28;96784;-51
2022/10/04 03:20:20;;;;;;;6.47;1.20;;;;;;;13.59;64.21;101982.41;4911829;28;96958;-49
2022/10/04 03:23:03;;;;;;;2.70;0.83;;;;;;;13.56;64.36;101958.50;4907248;28;102053;-49
2022/10/04 03:25:39;;;;;;;8.57;1.50;;;;;;;13.56;64.13;101964.03;4907291;28;100852;-49
2022/10/04 03:28:06;;;;;;;15.40;1.40;;;;;;;13.59;64.33;101957.53;4904258;28;97230;-50
2022/10/04 03:30:33;;;;;;;1.80;1.07;;;;;;;13.60;64.27;101959.81;4909726;28;96981;-54
2022/10/04 03:32:59;;;;;;;1.27;0.90;;;;;;;13.60;64.20;101956.28;4907955;28;97181;-52
2022/10/04 03:35:32;;;;;;;7.93;1.00;;;;;;;13.59;64.43;101960.28;4909560;28;97013;-49
2022/10/04 03:38:01;;;;;;;1.70;1.07;;;;;;;13.54;64.10;101962.50;4907010;28;97141;-49
2022/10/04 03:40:30;;;;;;;0.97;0.87;;;;;;;13.56;64.18;101958.50;4909452;28;98650;-51
2022/10/04 03:42:58;;;;;;;3.27;1.00;;;;;;;13.54;64.23;101956.97;4909157;28;97502;-51
2022/10/04 03:45:26;;;;;;;2.50;1.20;;;;;;;13.53;64.24;101961.00;4910434;28;97557;-50
2022/10/04 03:47:55;;;;;;;3.27;1.20;;;;;;;13.52;64.25;101969.75;4897978;28;97288;-49
2022/10/04 03:50:28;;;;;;;1.70;0.90;;;;;;;13.52;64.23;101953.94;4906101;28;97016;-51
2022/10/04 03:52:57;;;;;;;2.03;1.00;;;;;;;13.52;64.25;101956.69;4908351;28;101934;-51
2022/10/04 03:55:42;;;;;;;3.20;0.90;;;;;;;13.52;64.58;101959.44;4907126;28;97003;-49
2022/10/04 03:58:10;;;;;;;3.83;0.80;;;;;;;13.49;64.35;101956.91;4910390;28;97378;-50
2022/10/04 04:00:42;;;;;;;1.03;0.73;;;;;;;13.46;64.23;101949.56;4908784;28;96942;-51
2022/10/04 04:03:15;;;;;;;1.13;1.03;;;;;;;13.47;64.40;101957.38;4910178;28;103155;-51
2022/10/04 04:06:04;;;;;;;4.67;1.03;;;;;;;13.45;64.48;101948.03;4905815;28;98459;-53
2022/10/04 04:08:39;;;;;;;5.17;1.47;;;;;;;13.44;64.55;101950.03;4908354;28;96993;-50
2022/10/04 04:11:11;;;;;;;2.30;0.90;;;;;;;13.44;64.36;101946.50;4908590;28;97051;-50
2022/10/04 04:13:48;;;;;;;3.63;1.50;;;;;;;13.46;64.50;101957.84;4906330;28;97128;-54
2022/10/04 04:16:13;;;;;;;3.57;1.20;;;;;;;13.45;64.42;101957.09;4900445;28;102302;-51
2022/10/04 04:18:42;;;;;;;2.10;1.03;;;;;;;13.46;64.46;101953.09;4909700;28;97165;-51
2022/10/04 04:21:09;;;;;;;4.17;1.00;;;;;;;13.48;64.46;101956.13;4909244;28;97308;-51
2022/10/04 04:23:38;;;;;;;3.80;1.30;;;;;;;13.50;64.41;101956.41;4902421;28;97410;-50
2022/10/04 04:26:16;;;;;;;3.37;1.00;;;;;;;13.51;64.76;101959.94;4907937;28;99181;-52
2022/10/04 04:28:47;;;;;;;2.23;0.90;;;;;;;13.51;64.58;101962.72;4912878;28;97269;-49
2022/10/04 04:31:36;;;;;;;6.07;1.10;;;;;;;13.52;64.85;101958.69;4906447;28;96960;-49
2022/10/04 04:34:05;;;;;;;5.53;1.20;;;;;;;13.51;64.42;101957.94;4899652;28;100645;-50
2022/10/04 04:36:39;;;;;;;8.17;1.30;;;;;;;13.53;64.57;101954.69;4904568;28;102129;-51
2022/10/04 04:39:43;;;;;;;2.43;1.20;;;;;;;13.50;64.71;101958.41;4909729;28;97300;-50
2022/10/04 04:42:09;;;;;;;3.17;1.00;;;;;;;13.46;64.35;101950.31;4909194;28;96654;-50
2022/10/04 04:44:37;;;;;;;1.37;1.10;;;;;;;13.44;64.20;101947.28;4906106;28;96963;-50
2022/10/04 04:47:08;;;;;;;4.70;1.50;;;;;;;13.44;64.55;101952.03;4905543;28;97273;-49
2022/10/04 04:49:38;;;;;;;1.17;1.07;;;;;;;13.45;64.63;101948.78;4911485;28;97087;-52
2022/10/04 04:52:05;;;;;;;1.63;1.10;;;;;;;13.45;64.54;101959.09;4908113;28;97412;-51
2022/10/04 04:54:31;;;;;;;3.27;1.00;;;;;;;13.44;64.57;101952.81;4909732;28;97430;-50
2022/10/04 04:56:57;;;;;;;2.50;1.10;;;;;;;13.44;64.55;101954.81;4901862;28;97489;-50
2022/10/04 04:59:26;;;;;;;6.93;1.40;;;;;;;13.46;64.71;101955.09;4909544;28;97444;-51
2022/10/04 05:01:52;;;;;;;4.90;0.80;;;;;;;13.46;64.65;101950.31;4904363;28;97188;-50
2022/10/04 05:04:22;;;;;;;12.20;1.10;;;;;;;13.45;64.57;101951.56;4910604;28;97237;-49
2022/10/04 05:07:05;;;;;;;5.93;0.97;;;;;;;13.46;64.67;101946.78;4907355;28;97593;-51
2022/10/04 05:09:37;;;;;;;2.10;1.07;;;;;;;13.47;64.64;101945.56;4908359;28;97261;-51
2022/10/04 05:12:15;;;;;;;4.00;1.03;;;;;;;13.48;64.70;101950.59;4907964;28;96969;-52
2022/10/04 05:14:47;;;;;;;2.03;1.17;;;;;;;13.48;64.53;101947.84;4907530;28;100360;-52
2022/10/04 05:17:32;;;;;;;1.53;1.20;;;;;;;13.47;64.93;101946.31;4905797;28;97368;-51
2022/10/04 05:20:01;;;;;;;0.90;0.90;;;;;;;13.46;64.61;101938.50;4911344;28;96744;-50
2022/10/04 05:22:29;;;;;;;1.60;0.80;;;;;;;13.45;64.76;101937.72;4906863;28;96923;-50
2022/10/04 05:24:59;;;;;;;10.37;1.43;;;;;;;13.46;64.58;101935.72;4909911;28;97532;-50
2022/10/04 05:27:35;;;;;;;1.57;0.90;;;;;;;13.47;64.93;101940.78;4899613;28;97293;-49
2022/10/04 05:30:29;;;;;;;3.87;1.40;;;;;;;13.48;64.93;101938.78;4905156;28;97585;-50
2022/10/04 05:33:05;;;;;;;1.13;1.03;;;;;;;13.49;64.78;101935.56;4905141;28;96826;-50
2022/10/04 05:35:44;;;;;;;2.40;1.00;;;;;;;13.50;64.91;101939.81;4908483;28;102121;-50
2022/10/04 05:38:16;;;;;;;2.00;1.23;;;;;;;13.52;64.89;101942.09;4905392;28;97388;-49
2022/10/04 05:41:02;;;;;;;3.60;1.20;;;;;;;13.51;64.85;101944.13;4905092;28;96964;-54
2022/10/04 05:43:34;;;;;;;9.13;1.40;;;;;;;13.53;64.85;101949.16;4903458;28;96951;-50
2022/10/04 05:46:17;;;;;;;3.83;1.30;;;;;;;13.54;64.97;101945.16;4908319;28;97422;-49
2022/10/04 05:48:44;;;;;;;5.60;1.80;;;;;;;13.55;64.62;101952.19;4907490;28;102345;-50
2022/10/04 05:51:23;;;;;;;3.03;1.50;;;;;;;13.57;65.01;101949.72;4907193;28;97273;-52
2022/10/04 05:53:49;;;;;;;4.00;1.77;;;;;;;13.58;64.78;101951.25;4904602;28;96983;-51
2022/10/04 05:56:20;;;;;;;4.07;1.80;;;;;;;13.59;64.77;101946.47;4909710;28;97686;-50
2022/10/04 05:58:52;;;;;;;1.23;1.13;;;;;;;13.60;64.75;101946.00;4910087;28;100801;-51
2022/10/04 06:01:36;;;;;;;1.73;1.20;;;;;;;13.60;64.70;101946.00;4909817;28;98450;-49
2022/10/04 06:04:21;;;;;;;10.30;2.00;;;;;;;13.61;64.71;101949.53;4908407;28;97757;-49
2022/10/04 06:07:19;;;;;;;5.13;1.90;;;;;;;13.62;65.05;101948.28;4898864;28;97161;-51
2022/10/04 06:10:24;;;;;;;4.90;1.80;;;;;;;13.66;64.97;101949.59;4907048;28;101547;-50
2022/10/04 06:12:59;;;;;;;2.50;1.30;;;;;;;13.67;64.78;101944.84;4909392;28;96632;-49
2022/10/04 06:15:54;;;;;;;3.07;1.27;;;;;;;13.70;65.17;101946.63;4913483;28;97499;-50
2022/10/04 06:19:00;;;;;;;4.40;1.30;;;;;;;13.70;65.25;101952.16;4908250;28;101706;-49
2022/10/04 06:21:35;;;;;;;4.93;1.80;;;;;;;13.71;65.04;101951.69;4913477;28;102145;-50
2022/10/04 06:24:16;;;;;;;2.50;1.27;;;;;;;13.75;65.14;101959.78;4908894;28;96808;-49
2022/10/04 06:27:20;;;;;;;8.60;1.20;;;;;;;13.77;65.02;101949.75;4909011;28;97249;-49
2022/10/04 06:29:53;;;;;;;7.20;1.20;;;;;;;13.77;64.77;101957.28;4894403;28;101950;-53
2022/10/04 06:32:35;;;;;;;1.27;1.17;;;;;;;13.79;64.95;101952.78;4908970;28;97630;-50
2022/10/04 06:35:38;;;;;;;7.43;1.43;;;;;;;13.80;65.15;101950.78;4908986;28;97096;-50
2022/10/04 06:38:19;;;;;;;1.63;1.17;;;;;;;13.80;64.87;101953.56;4900447;28;97477;-51
2022/10/04 06:41:22;;;;;;;4.97;1.83;;;;;;;13.82;65.15;101953.84;4909510;28;96990;-49
2022/10/04 06:44:11;;;;;;;6.27;1.37;;;;;;;13.84;65.15;101954.88;4908660;28;100223;-52
2022/10/04 06:46:45;;;;;;;3.70;1.43;;;;;;;13.86;64.98;101955.16;4910155;28;96978;-50
2022/10/04 06:49:33;;;;;;;1.87;1.50;;;;;;;13.90;65.16;101955.72;4910701;28;98644;-49
2022/10/04 06:52:49;;;;;;;4.30;1.80;;;;;;;13.93;65.34;101954.75;4910104;28;101310;-50
2022/10/04 06:55:39;;;;;;;3.80;1.50;;;;;;;13.98;65.30;101958.81;4878312;28;101676;-51
2022/10/04 06:58:15;;;;;;;5.00;1.83;;;;;;;14.03;65.07;101958.13;4907314;28;97052;-51
2022/10/04 07:00:51;;;;;;;2.00;1.47;;;;;;;14.07;64.96;101961.44;4905848;28;96959;-50
2022/10/04 07:03:25;;;;;;;5.00;1.53;;;;;;;14.13;65.00;101968.56;4909464;28;102045;-50
2022/10/04 07:06:00;;;;;;;1.33;1.30;;;;;;;14.17;65.06;101957.31;4909082;28;97203;-50
2022/10/04 07:08:49;;;;;;;7.10;2.17;;;;;;;14.21;64.95;101961.38;4906293;28;96816;-52
2022/10/04 07:11:29;;;;;;;6.13;1.67;;;;;;;14.24;65.07;101962.44;4912925;28;97270;-49
2022/10/04 07:14:12;;;;;;;5.77;1.33;;;;;;;14.27;65.12;101956.66;4908181;28;103057;-50
2022/10/04 07:16:43;;;;;;;5.10;1.80;;;;;;;14.30;64.95;101962.50;4910789;28;98131;-49
2022/10/04 07:19:18;;;;;;;4.00;1.77;;;;;;;14.36;65.09;101958.56;4908617;28;97379;-49
2022/10/04 07:22:11;;;;;;;6.23;1.80;;;;;;;14.39;65.22;101965.91;4910251;28;97280;-49
2022/10/04 07:25:07;;;;;;;3.20;1.30;;;;;;;14.45;65.49;101968.72;4903474;28;101878;-51
2022/10/04 07:27:35;;;;;;;6.63;1.50;;;;;;;14.52;65.01;101963.53;4907977;28;101542;-52
2022/10/04 07:30:13;;;;;;;7.77;1.90;;;;;;;14.60;65.03;101966.59;4908358;28;101113;-52
2022/10/04 07:32:48;;;;;;;3.73;1.50;;;;;;;14.68;65.02;101968.44;4911455;28;97190;-50
2022/10/04 07:35:34;;;;;;;1.87;1.50;;;;;;;14.76;65.05;101961.25;4907403;28;100384;-50
2022/10/04 07:38:12;;;;;;;2.97;1.40;;;;;;;14.86;64.88;101970.13;4908243;28;97456;-49
2022/10/04 07:40:43;;;;;;;4.87;1.47;;;;;;;14.94;64.89;101974.75;4910283;28;96784;-53
2022/10/04 07:43:18;;;;;;;3.30;1.47;;;;;;;15.03;64.64;101971.81;4909996;28;97321;-49
2022/10/04 07:45:45;;;;;;;2.87;1.50;;;;;;;15.08;64.71;101970.34;4903231;28;97657;-53
2022/10/04 07:48:18;;;;;;;6.43;2.00;;;;;;;15.15;64.74;101969.91;4902779;28;97273;-50
2022/10/04 07:51:15;;;;;;;4.37;1.87;;;;;;;15.19;64.62;101977.97;4905262;28;97156;-49
2022/10/04 07:53:49;;;;;;;3.80;1.60;;;;;;;15.23;64.54;101970.97;4885001;28;96735;-49
2022/10/04 07:56:26;;;;;;;3.90;1.13;;;;;;;15.30;64.48;101975.28;4902960;28;97375;-53
2022/10/04 07:59:07;;;;;;;5.40;1.13;;;;;;;15.34;64.49;101973.81;4909080;28;97206;-49
2022/10/04 08:02:07;;;;;;;9.90;2.10;;;;;;;15.39;64.55;101969.56;4908946;28;97166;-50
2022/10/04 08:04:49;;;;;;;4.47;1.50;;;;;;;15.47;64.38;101973.41;4905416;28;97171;-51
2022/10/04 08:07:30;;;;;;;3.00;1.67;;;;;;;15.51;64.17;101979.50;4909479;28;106271;-50
2022/10/04 08:10:02;;;;;;;4.67;1.53;;;;;;;15.58;64.39;101970.72;4907991;28;98454;-50
2022/10/04 08:12:34;;;;;;;2.93;1.57;;;;;;;15.70;64.25;101975.84;4911174;28;98071;-50
2022/10/04 08:15:08;;;;;;;3.27;1.30;;;;;;;15.79;63.83;101966.56;4910018;28;97298;-48
2022/10/04 08:17:50;;;;;;;5.27;1.93;;;;;;;15.85;63.89;101972.91;4908112;28;97252;-51
2022/10/04 08:20:33;;;;;;;9.37;1.77;;;;;;;15.96;63.92;101963.88;4905953;28;106740;-52
2022/10/04 08:23:25;;;;;;;5.20;1.70;;;;;;;16.03;63.54;101971.72;4908567;28;97454;-50
2022/10/04 08:26:12;;;;;;;5.13;1.53;;;;;;;16.09;63.54;101958.63;4910115;28;97055;-50
2022/10/04 08:31:58;;;;;;;4.80;1.43;;;;;;;16.25;63.40;101953.13;4907264;28;100027;-51
2022/10/04 08:34:58;;;;;;;2.20;1.37;;;;;;;16.30;62.73;101957.19;4908367;28;97282;-49
2022/10/04 08:37:37;;;;;;;2.20;1.53;;;;;;;16.36;63.04;101966.28;4907456;28;97034;-49
2022/10/04 08:40:38;;;;;;;7.43;1.57;;;;;;;16.42;62.59;101956.69;4903257;28;101338;-49
2022/10/04 08:43:41;;;;;;;1.70;1.33;;;;;;;16.49;62.35;101961.78;4905887;28;101824;-51
2022/10/04 08:46:45;;;;;;;3.50;1.50;;;;;;;16.61;62.75;101959.06;4907081;28;101224;-49
2022/10/04 08:49:37;;;;;;;5.10;1.47;;;;;;;16.74;62.68;101954.53;4906405;28;97523;-49
2022/10/04 08:52:36;;;;;;;3.27;1.77;;;;;;;16.85;62.03;101962.13;4908157;28;102985;-53
2022/10/04 08:55:19;;;;;;;4.87;1.53;;;;;;;16.92;61.98;101965.16;4909482;28;99934;-49
2022/10/04 08:58:14;;;;;;;4.13;1.70;;;;;;;16.97;61.70;101963.66;4902114;28;97136;-50
2022/10/04 09:00:55;;;;;;;6.33;1.90;;;;;;;17.06;61.96;101963.38;4904716;28;97101;-48
2022/10/04 09:03:26;;;;;;;2.97;1.70;;;;;;;17.13;62.21;101957.31;4906430;28;97283;-50
2022/10/04 09:06:07;;;;;;;7.93;1.90;;;;;;;17.18;61.95;101957.34;4908808;28;97870;-49
2022/10/04 09:09:03;;;;;;;6.30;1.90;;;;;;;17.27;61.47;101959.09;4905952;28;97308;-50
2022/10/04 09:11:40;;;;;;;2.50;1.03;;;;;;;17.34;62.14;101953.03;4901282;28;97580;-48
2022/10/04 09:14:26;;;;;;;6.27;1.47;;;;;;;17.42;61.77;101951.22;4903313;28;102987;-52
2022/10/04 09:17:01;;;;;;;7.27;1.87;;;;;;;17.49;61.17;101953.50;4907108;28;102201;-52
2022/10/04 09:19:53;;;;;;;2.23;1.23;;;;;;;17.56;60.93;101936.28;4906174;28;97142;-49
2022/10/04 09:22:33;;;;;;;4.57;1.40;;;;;;;17.64;60.86;101936.53;4907084;28;97513;-50
2022/10/04 09:25:20;;;;;;;3.40;1.20;;;;;;;17.71;60.86;101942.31;4906992;28;97447;-50
2022/10/04 09:27:57;;;;;;;1.80;0.90;;;;;;;17.82;61.07;101941.56;4903696;28;100328;-48
2022/10/04 09:30:51;;;;;;;3.83;1.73;;;;;;;17.92;60.93;101946.31;4904634;28;97162;-51
2022/10/04 09:33:17;;;;;;;3.30;1.07;;;;;;;17.93;60.95;101942.25;4912663;28;97040;-51
2022/10/04 09:35:57;;;;;;;0.90;0.80;;;;;;;18.02;60.63;101938.41;4906808;28;98698;-52
2022/10/04 09:38:39;;;;;;;7.37;1.60;;;;;;;18.10;60.11;101938.66;4905547;28;101690;-48
2022/10/04 09:41:34;;;;;;;4.40;1.40;;;;;;;18.13;60.00;101938.38;4907092;28;96853;-48
2022/10/04 09:44:16;;;;;;;4.20;1.57;;;;;;;18.20;59.83;101939.84;4907857;28;96944;-49
2022/10/04 09:47:00;;;;;;;5.63;1.90;;;;;;;18.24;59.20;101941.09;4904688;28;103157;-49
2022/10/04 09:49:45;;;;;;;3.50;1.50;;;;;;;18.30;60.13;101939.06;4906906;28;97314;-49
2022/10/04 09:52:41;;;;;;;3.80;1.27;;;;;;;18.33;59.16;101940.78;4909849;28;96597;-49
2022/10/04 09:55:13;;;;;;;3.77;1.60;;;;;;;18.40;60.29;101934.69;4908204;28;97195;-50
2022/10/04 09:58:11;;;;;;;2.73;1.57;;;;;;;18.49;58.99;101937.19;4906017;28;101892;-50
2022/10/04 10:00:55;;;;;;;6.13;1.63;;;;;;;18.53;59.32;101934.13;4904652;28;103839;-49
2022/10/04 10:03:54;;;;;;;4.30;2.00;;;;;;;18.58;58.97;101938.91;4906577;28;97140;-49
2022/10/04 10:06:19;;;;;;;5.50;1.87;;;;;;;18.61;59.82;101926.69;4897089;28;97293;-49
2022/10/04 10:09:14;;;;;;;10.23;2.20;;;;;;;18.65;59.19;101924.41;4893075;28;98796;-52
2022/10/04 10:15:13;;;;;;;2.77;1.67;;;;;;;18.74;58.24;101918.50;4915558;28;96963;-49
2022/10/04 10:17:50;;;;;;;5.93;1.40;;;;;;;18.76;59.29;101909.63;4907683;28;97325;-49
2022/10/04 10:20:44;;;;;;;4.23;1.10;;;;;;;18.82;58.56;101924.28;4904650;28;96870;-49
2022/10/04 10:23:09;;;;;;;7.27;1.30;;;;;;;18.89;59.30;101924.50;4904965;28;101380;-52
2022/10/04 10:25:40;;;;;;;1.83;1.10;;;;;;;18.95;58.85;101922.41;4906320;28;96834;-51
2022/10/04 10:28:18;;;;;;;2.43;1.23;;;;;;;19.01;58.79;101923.09;4906647;28;97055;-51
2022/10/04 10:31:14;;;;;;;3.23;1.60;;;;;;;19.06;57.45;101915.97;4900971;28;104054;-49
2022/10/04 10:34:08;;;;;;;3.30;1.10;;;;;;;19.12;57.87;101902.72;4902146;28;102156;-51
2022/10/04 10:36:48;;;;;;;4.07;1.43;;;;;;;19.22;58.23;101909.47;4900840;28;97867;-49
2022/10/04 10:39:31;;;;;;;3.40;1.40;;;;;;;19.27;58.25;101912.19;4907098;28;96914;-49
2022/10/04 10:42:18;;;;;;;3.93;1.17;;;;;;;19.29;55.77;101908.88;4903569;28;102319;-49
2022/10/04 10:44:47;;;;;;;3.30;1.40;;;;;;;19.30;57.62;101899.25;4906928;28;97204;-50
2022/10/04 10:47:32;;;;;;;4.20;1.33;;;;;;;19.32;56.82;101911.41;4905843;28;97469;-49
2022/10/04 10:50:02;;;;;;;3.57;1.23;;;;;;;19.31;56.96;101918.25;4905767;28;96951;-50
2022/10/04 10:52:42;;;;;;;3.00;1.70;;;;;;;19.26;56.28;101907.88;4906678;28;102126;-49
2022/10/04 10:55:25;;;;;;;1.63;1.10;;;;;;;19.29;56.68;101901.28;4904308;28;103074;-50
2022/10/04 10:58:21;;;;;;;5.40;1.90;;;;;;;19.40;56.19;101901.19;4907742;28;96851;-50
2022/10/04 11:01:14;;;;;;;2.07;1.30;;;;;;;19.53;56.17;101903.31;4908203;28;98375;-50
2022/10/04 11:04:13;;;;;;;3.40;1.20;;;;;;;19.61;55.92;101897.91;4904271;28;100627;-50
2022/10/04 11:07:17;;;;;;;1.20;1.10;;;;;;;19.72;55.51;101895.00;4904474;28;102693;-49
2022/10/04 11:09:58;;;;;;;3.27;1.13;;;;;;;19.81;56.74;101889.06;4898858;28;97413;-50
2022/10/04 11:13:02;;;;;;;3.57;1.33;;;;;;;19.91;54.93;101876.97;4906948;28;97073;-51
2022/10/04 11:15:37;;;;;;;2.67;1.43;;;;;;;20.03;55.49;101874.75;4905908;28;101882;-50
2022/10/04 11:18:08;;;;;;;2.47;1.20;;;;;;;20.15;56.38;101870.53;4893032;28;97289;-50
2022/10/04 11:20:52;;;;;;;4.03;1.70;;;;;;;20.24;54.52;101864.59;4906293;28;96826;-49
2022/10/04 11:23:51;;;;;;;7.10;1.40;;;;;;;20.37;54.51;101870.25;4906368;28;97313;-49
2022/10/04 11:26:38;;;;;;;1.50;1.20;;;;;;;20.46;53.86;101866.31;4905807;28;100623;-49
2022/10/04 11:29:29;;;;;;;2.03;1.40;;;;;;;20.59;54.32;101872.69;4904909;28;101723;-49
2022/10/04 11:32:00;;;;;;;2.70;1.07;;;;;;;20.72;54.86;101875.53;4903987;28;97219;-50
2022/10/04 11:35:10;;;;;;;5.63;1.13;;;;;;;20.82;53.60;101868.22;4905492;28;96662;-49
2022/10/04 11:37:42;;;;;;;3.13;1.37;;;;;;;21.00;54.54;101877.84;4906748;28;101662;-50
2022/10/04 11:40:08;;;;;;;4.70;1.17;;;;;;;21.15;54.63;101868.94;4905942;28;96929;-52
2022/10/04 11:42:48;;;;;;;2.20;1.00;;;;;;;21.28;53.00;101868.94;4903482;28;97324;-51
2022/10/04 11:46:04;;;;;;;2.60;1.10;;;;;;;21.42;52.34;101864.88;4908651;28;96641;-49
2022/10/04 11:48:41;;;;;;;2.07;1.00;;;;;;;21.58;52.92;101855.38;4880238;28;100438;-49
2022/10/04 11:51:46;;;;;;;2.40;1.13;;;;;;;21.71;51.37;101852.53;4903639;28;98162;-49
2022/10/04 11:54:33;;;;;;;1.10;0.70;;;;;;;21.82;52.66;101849.50;4904963;28;96897;-49
2022/10/04 11:57:20;;;;;;;2.80;0.70;;;;;;;21.97;52.65;101855.34;4905078;28;97181;-53
2022/10/04 12:00:13;;;;;;;8.40;1.57;;;;;;;22.15;51.30;101846.00;4905697;28;100522;-50
2022/10/04 12:03:15;;;;;;;1.93;1.10;;;;;;;22.36;51.13;101846.03;4905995;28;101662;-49
2022/10/04 12:06:05;;;;;;;5.57;1.07;;;;;;;22.49;50.99;101843.16;4901929;28;97360;-50
2022/10/04 12:08:51;;;;;;;1.97;0.90;;;;;;;22.58;51.13;101841.91;4896313;28;96970;-50
2022/10/04 12:14:57;;;;;;;1.33;1.10;;;;;;;22.85;50.00;101824.38;4907421;28;101438;-53
2022/10/04 12:17:44;;;;;;;2.40;0.90;;;;;;;23.03;50.60;101820.59;4906738;28;97033;-50
2022/10/04 12:20:43;;;;;;;3.27;0.70;;;;;;;23.16;50.03;101813.34;4904755;28;98432;-52
2022/10/04 12:23:29;;;;;;;5.27;1.13;;;;;;;23.30;50.95;101811.94;4905662;28;101957;-51
2022/10/04 12:26:22;;;;;;;2.40;0.90;;;;;;;23.39;49.75;101803.78;4909288;28;100651;-49
2022/10/04 12:29:19;;;;;;;1.40;0.90;;;;;;;23.49;49.33;101807.56;4906571;28;97344;-50
2022/10/04 12:31:49;;;;;;;5.13;1.40;;;;;;;23.56;50.69;101801.22;4905429;28;96961;-51